sensor_id;sensor_type;location;lat;lon;timestamp;P1;durP1;ratioP1;P2;durP2;ratioP2
4182;SDS011;2105;52.300;9.182;2022-10-31T00:01:44;24.40;;;18.90;;
4182;SDS011;2105;52.300;9.182;2022-10-31T00:04:11;27.03;;;19.57;;
4182;SDS011;2105;52.300;9.182;2022-10-31T00:06:38;37.03;;;20.17;;
4182;SDS011;2105;52.300;9.182;2022-10-31T00:09:04;39.10;;;20.77;;
4182;SDS011;2105;52.300;9.182;2022-10-31T00:11:31;40.60;;;22.37;;
4182;SDS011;2105;52.300;9.182;2022-10-31T00:13:58;32.83;;;21.50;;
4182;SDS011;2105;52.300;9.182;2022-10-31T00:16:27;35.20;;;21.77;;
4182;SDS011;2105;52.300;9.182;2022-10-31T00:18:55;31.00;;;21.33;;
4182;SDS011;2105;52.300;9.182;2022-10-31T00:21:23;36.77;;;21.87;;
4182;SDS011;2105;52.300;9.182;2022-10-31T00:23:51;26.70;;;22.53;;
4182;SDS011;2105;52.300;9.182;2022-10-31T00:26:18;38.50;;;23.30;;
4182;SDS011;2105;52.300;9.182;2022-10-31T00:28:45;35.07;;;23.33;;
4182;SDS011;2105;52.300;9.182;2022-10-31T00:31:13;29.60;;;21.70;;
4182;SDS011;2105;52.300;9.182;2022-10-31T00:33:41;37.00;;;24.20;;
4182;SDS011;2105;52.300;9.182;2022-10-31T00:36:10;36.73;;;24.03;;
4182;SDS011;2105;52.300;9.182;2022-10-31T00:38:38;35.87;;;23.40;;
4182;SDS011;2105;52.300;9.182;2022-10-31T00:41:05;41.60;;;22.93;;
4182;SDS011;2105;52.300;9.182;2022-10-31T00:43:31;35.20;;;23.80;;
4182;SDS011;2105;52.300;9.182;2022-10-31T00:45:58;36.03;;;24.87;;
4182;SDS011;2105;52.300;9.182;2022-10-31T00:48:25;36.27;;;24.40;;
4182;SDS011;2105;52.300;9.182;2022-10-31T00:50:53;37.07;;;26.17;;
4182;SDS011;2105;52.300;9.182;2022-10-31T00:53:20;43.20;;;26.07;;
4182;SDS011;2105;52.300;9.182;2022-10-31T00:55:47;47.70;;;27.17;;
4182;SDS011;2105;52.300;9.182;2022-10-31T00:58:14;48.97;;;26.77;;
4182;SDS011;2105;52.300;9.182;2022-10-31T01:00:41;44.03;;;25.80;;
4182;SDS011;2105;52.300;9.182;2022-10-31T01:03:08;46.33;;;28.10;;
4182;SDS011;2105;52.300;9.182;2022-10-31T01:05:35;52.17;;;28.30;;
4182;SDS011;2105;52.300;9.182;2022-10-31T01:08:03;46.47;;;27.27;;
4182;SDS011;2105;52.300;9.182;2022-10-31T01:10:30;43.83;;;28.07;;
4182;SDS011;2105;52.300;9.182;2022-10-31T01:12:57;45.83;;;28.60;;
4182;SDS011;2105;52.300;9.182;2022-10-31T01:15:24;57.17;;;29.07;;
4182;SDS011;2105;52.300;9.182;2022-10-31T01:17:51;46.87;;;30.13;;
4182;SDS011;2105;52.300;9.182;2022-10-31T01:20:17;50.90;;;28.40;;
4182;SDS011;2105;52.300;9.182;2022-10-31T01:22:44;44.17;;;27.30;;
4182;SDS011;2105;52.300;9.182;2022-10-31T01:25:12;46.67;;;27.50;;
4182;SDS011;2105;52.300;9.182;2022-10-31T01:27:39;58.17;;;29.97;;
4182;SDS011;2105;52.300;9.182;2022-10-31T01:30:06;40.20;;;26.10;;
4182;SDS011;2105;52.300;9.182;2022-10-31T01:32:34;45.33;;;28.07;;
4182;SDS011;2105;52.300;9.182;2022-10-31T01:35:00;47.87;;;26.37;;
4182;SDS011;2105;52.300;9.182;2022-10-31T01:37:27;39.73;;;26.20;;
4182;SDS011;2105;52.300;9.182;2022-10-31T01:39:54;44.70;;;26.60;;
4182;SDS011;2105;52.300;9.182;2022-10-31T01:42:22;36.63;;;26.23;;
4182;SDS011;2105;52.300;9.182;2022-10-31T01:44:51;45.10;;;25.90;;
4182;SDS011;2105;52.300;9.182;2022-10-31T01:47:31;40.07;;;25.47;;
4182;SDS011;2105;52.300;9.182;2022-10-31T01:50:03;49.83;;;24.10;;
4182;SDS011;2105;52.300;9.182;2022-10-31T01:52:32;44.13;;;24.57;;
4182;SDS011;2105;52.300;9.182;2022-10-31T01:55:03;40.17;;;23.63;;
4182;SDS011;2105;52.300;9.182;2022-10-31T01:57:35;39.40;;;24.53;;
4182;SDS011;2105;52.300;9.182;2022-10-31T02:00:04;50.67;;;23.70;;
4182;SDS011;2105;52.300;9.182;2022-10-31T02:02:34;33.90;;;22.50;;
4182;SDS011;2105;52.300;9.182;2022-10-31T02:05:03;41.10;;;22.53;;
4182;SDS011;2105;52.300;9.182;2022-10-31T02:07:34;32.80;;;21.87;;
4182;SDS011;2105;52.300;9.182;2022-10-31T02:10:04;38.20;;;22.90;;
4182;SDS011;2105;52.300;9.182;2022-10-31T02:12:31;35.80;;;22.57;;
4182;SDS011;2105;52.300;9.182;2022-10-31T02:15:03;34.40;;;21.60;;
4182;SDS011;2105;52.300;9.182;2022-10-31T02:17:30;34.10;;;22.20;;
4182;SDS011;2105;52.300;9.182;2022-10-31T02:20:00;33.10;;;20.60;;
4182;SDS011;2105;52.300;9.182;2022-10-31T02:22:35;37.43;;;21.70;;
4182;SDS011;2105;52.300;9.182;2022-10-31T02:25:13;38.40;;;21.90;;
4182;SDS011;2105;52.300;9.182;2022-10-31T02:28:07;37.93;;;22.50;;
4182;SDS011;2105;52.300;9.182;2022-10-31T02:31:03;38.80;;;21.70;;
4182;SDS011;2105;52.300;9.182;2022-10-31T02:33:41;41.60;;;22.40;;
4182;SDS011;2105;52.300;9.182;2022-10-31T02:36:12;41.20;;;21.33;;
4182;SDS011;2105;52.300;9.182;2022-10-31T02:38:49;47.70;;;22.00;;
4182;SDS011;2105;52.300;9.182;2022-10-31T02:41:24;40.37;;;20.53;;
4182;SDS011;2105;52.300;9.182;2022-10-31T02:44:00;31.10;;;21.10;;
4182;SDS011;2105;52.300;9.182;2022-10-31T02:46:34;33.70;;;20.57;;
4182;SDS011;2105;52.300;9.182;2022-10-31T02:49:05;39.97;;;21.07;;
4182;SDS011;2105;52.300;9.182;2022-10-31T02:51:36;42.33;;;21.50;;
4182;SDS011;2105;52.300;9.182;2022-10-31T02:54:04;39.30;;;22.87;;
4182;SDS011;2105;52.300;9.182;2022-10-31T02:56:31;38.00;;;21.87;;
4182;SDS011;2105;52.300;9.182;2022-10-31T02:58:58;35.10;;;21.37;;
4182;SDS011;2105;52.300;9.182;2022-10-31T03:01:41;38.43;;;20.90;;
4182;SDS011;2105;52.300;9.182;2022-10-31T03:04:26;36.10;;;21.20;;
4182;SDS011;2105;52.300;9.182;2022-10-31T03:06:59;33.63;;;21.87;;
4182;SDS011;2105;52.300;9.182;2022-10-31T03:09:33;31.67;;;20.87;;
4182;SDS011;2105;52.300;9.182;2022-10-31T03:12:08;42.20;;;22.77;;
4182;SDS011;2105;52.300;9.182;2022-10-31T03:14:40;44.47;;;21.80;;
4182;SDS011;2105;52.300;9.182;2022-10-31T03:17:12;35.33;;;21.70;;
4182;SDS011;2105;52.300;9.182;2022-10-31T03:19:44;42.27;;;21.73;;
4182;SDS011;2105;52.300;9.182;2022-10-31T03:22:15;38.07;;;22.70;;
4182;SDS011;2105;52.300;9.182;2022-10-31T03:24:45;31.60;;;22.40;;
4182;SDS011;2105;52.300;9.182;2022-10-31T03:27:14;36.20;;;21.63;;
4182;SDS011;2105;52.300;9.182;2022-10-31T03:29:46;36.87;;;21.20;;
4182;SDS011;2105;52.300;9.182;2022-10-31T03:32:17;37.50;;;21.53;;
4182;SDS011;2105;52.300;9.182;2022-10-31T03:34:46;40.80;;;22.00;;
4182;SDS011;2105;52.300;9.182;2022-10-31T03:37:17;34.63;;;21.10;;
4182;SDS011;2105;52.300;9.182;2022-10-31T03:39:45;38.17;;;22.80;;
4182;SDS011;2105;52.300;9.182;2022-10-31T03:42:16;41.07;;;23.00;;
4182;SDS011;2105;52.300;9.182;2022-10-31T03:44:52;39.83;;;22.40;;
4182;SDS011;2105;52.300;9.182;2022-10-31T03:47:23;42.60;;;23.00;;
4182;SDS011;2105;52.300;9.182;2022-10-31T03:49:50;41.43;;;21.17;;
4182;SDS011;2105;52.300;9.182;2022-10-31T03:52:19;47.53;;;22.30;;
4182;SDS011;2105;52.300;9.182;2022-10-31T03:54:51;37.50;;;22.33;;
4182;SDS011;2105;52.300;9.182;2022-10-31T03:57:23;35.57;;;20.97;;
4182;SDS011;2105;52.300;9.182;2022-10-31T03:59:54;33.57;;;21.47;;
4182;SDS011;2105;52.300;9.182;2022-10-31T04:02:28;38.17;;;23.10;;
4182;SDS011;2105;52.300;9.182;2022-10-31T04:04:56;42.70;;;21.80;;
4182;SDS011;2105;52.300;9.182;2022-10-31T04:07:25;40.30;;;23.20;;
4182;SDS011;2105;52.300;9.182;2022-10-31T04:09:55;34.23;;;21.83;;
4182;SDS011;2105;52.300;9.182;2022-10-31T04:12:24;37.87;;;22.47;;
4182;SDS011;2105;52.300;9.182;2022-10-31T04:14:54;36.23;;;22.47;;
4182;SDS011;2105;52.300;9.182;2022-10-31T04:17:22;33.80;;;22.90;;
4182;SDS011;2105;52.300;9.182;2022-10-31T04:19:53;31.00;;;19.83;;
4182;SDS011;2105;52.300;9.182;2022-10-31T04:22:19;38.20;;;21.73;;
4182;SDS011;2105;52.300;9.182;2022-10-31T04:24:46;39.97;;;21.90;;
4182;SDS011;2105;52.300;9.182;2022-10-31T04:27:13;42.47;;;22.57;;
4182;SDS011;2105;52.300;9.182;2022-10-31T04:29:40;46.13;;;23.07;;
4182;SDS011;2105;52.300;9.182;2022-10-31T04:32:06;45.97;;;23.60;;
4182;SDS011;2105;52.300;9.182;2022-10-31T04:34:33;42.50;;;22.47;;
4182;SDS011;2105;52.300;9.182;2022-10-31T04:37:01;32.17;;;21.93;;
4182;SDS011;2105;52.300;9.182;2022-10-31T04:39:28;35.33;;;21.40;;
4182;SDS011;2105;52.300;9.182;2022-10-31T04:41:55;33.60;;;22.20;;
4182;SDS011;2105;52.300;9.182;2022-10-31T04:44:21;37.73;;;21.50;;
4182;SDS011;2105;52.300;9.182;2022-10-31T04:46:48;31.97;;;20.80;;
4182;SDS011;2105;52.300;9.182;2022-10-31T04:49:15;33.57;;;20.40;;
4182;SDS011;2105;52.300;9.182;2022-10-31T04:51:42;37.37;;;21.57;;
4182;SDS011;2105;52.300;9.182;2022-10-31T04:54:10;35.73;;;21.37;;
4182;SDS011;2105;52.300;9.182;2022-10-31T04:56:36;30.53;;;21.33;;
4182;SDS011;2105;52.300;9.182;2022-10-31T04:59:03;35.63;;;22.60;;
4182;SDS011;2105;52.300;9.182;2022-10-31T05:01:30;34.23;;;20.30;;
4182;SDS011;2105;52.300;9.182;2022-10-31T05:03:56;35.07;;;21.50;;
4182;SDS011;2105;52.300;9.182;2022-10-31T05:06:23;35.00;;;21.47;;
4182;SDS011;2105;52.300;9.182;2022-10-31T05:08:50;34.53;;;19.57;;
4182;SDS011;2105;52.300;9.182;2022-10-31T05:11:18;33.63;;;20.97;;
4182;SDS011;2105;52.300;9.182;2022-10-31T05:13:45;31.70;;;19.43;;
4182;SDS011;2105;52.300;9.182;2022-10-31T05:16:12;30.60;;;20.40;;
4182;SDS011;2105;52.300;9.182;2022-10-31T05:18:38;36.43;;;22.10;;
4182;SDS011;2105;52.300;9.182;2022-10-31T05:21:05;32.13;;;20.47;;
4182;SDS011;2105;52.300;9.182;2022-10-31T05:23:32;29.03;;;20.70;;
4182;SDS011;2105;52.300;9.182;2022-10-31T05:25:59;25.47;;;20.43;;
4182;SDS011;2105;52.300;9.182;2022-10-31T05:28:27;30.23;;;19.83;;
4182;SDS011;2105;52.300;9.182;2022-10-31T05:30:53;28.33;;;20.43;;
4182;SDS011;2105;52.300;9.182;2022-10-31T05:33:20;30.50;;;19.90;;
4182;SDS011;2105;52.300;9.182;2022-10-31T05:35:47;26.40;;;19.50;;
4182;SDS011;2105;52.300;9.182;2022-10-31T05:38:14;28.83;;;20.07;;
4182;SDS011;2105;52.300;9.182;2022-10-31T05:40:41;36.20;;;20.57;;
4182;SDS011;2105;52.300;9.182;2022-10-31T05:43:07;29.53;;;21.77;;
4182;SDS011;2105;52.300;9.182;2022-10-31T05:45:35;26.70;;;19.87;;
4182;SDS011;2105;52.300;9.182;2022-10-31T05:48:02;29.10;;;20.30;;
4182;SDS011;2105;52.300;9.182;2022-10-31T05:50:30;28.73;;;19.83;;
4182;SDS011;2105;52.300;9.182;2022-10-31T05:52:58;28.07;;;19.70;;
4182;SDS011;2105;52.300;9.182;2022-10-31T05:55:26;31.13;;;19.10;;
4182;SDS011;2105;52.300;9.182;2022-10-31T05:57:53;31.77;;;19.83;;
4182;SDS011;2105;52.300;9.182;2022-10-31T06:00:20;25.50;;;18.80;;
4182;SDS011;2105;52.300;9.182;2022-10-31T06:02:49;25.70;;;19.17;;
4182;SDS011;2105;52.300;9.182;2022-10-31T06:05:23;25.00;;;19.03;;
4182;SDS011;2105;52.300;9.182;2022-10-31T06:07:50;25.60;;;19.40;;
4182;SDS011;2105;52.300;9.182;2022-10-31T06:10:17;26.50;;;18.90;;
4182;SDS011;2105;52.300;9.182;2022-10-31T06:12:45;33.30;;;19.80;;
4182;SDS011;2105;52.300;9.182;2022-10-31T06:15:12;28.17;;;17.97;;
4182;SDS011;2105;52.300;9.182;2022-10-31T06:17:39;25.43;;;19.30;;
4182;SDS011;2105;52.300;9.182;2022-10-31T06:20:08;25.57;;;18.03;;
4182;SDS011;2105;52.300;9.182;2022-10-31T06:22:35;30.17;;;18.50;;
4182;SDS011;2105;52.300;9.182;2022-10-31T06:25:03;25.07;;;17.97;;
4182;SDS011;2105;52.300;9.182;2022-10-31T06:27:30;27.80;;;17.50;;
4182;SDS011;2105;52.300;9.182;2022-10-31T06:29:56;28.40;;;17.00;;
4182;SDS011;2105;52.300;9.182;2022-10-31T06:32:23;24.07;;;16.87;;
4182;SDS011;2105;52.300;9.182;2022-10-31T06:34:50;26.13;;;17.10;;
4182;SDS011;2105;52.300;9.182;2022-10-31T06:37:18;24.77;;;17.40;;
4182;SDS011;2105;52.300;9.182;2022-10-31T06:39:45;23.23;;;16.57;;
4182;SDS011;2105;52.300;9.182;2022-10-31T06:42:12;25.53;;;17.23;;
4182;SDS011;2105;52.300;9.182;2022-10-31T06:44:38;23.13;;;15.60;;
4182;SDS011;2105;52.300;9.182;2022-10-31T06:47:05;22.63;;;15.90;;
4182;SDS011;2105;52.300;9.182;2022-10-31T06:49:32;22.63;;;16.40;;
4182;SDS011;2105;52.300;9.182;2022-10-31T06:51:59;25.80;;;16.03;;
4182;SDS011;2105;52.300;9.182;2022-10-31T06:54:27;26.40;;;16.60;;
4182;SDS011;2105;52.300;9.182;2022-10-31T06:56:54;22.53;;;15.10;;
4182;SDS011;2105;52.300;9.182;2022-10-31T06:59:21;21.73;;;15.10;;
4182;SDS011;2105;52.300;9.182;2022-10-31T07:01:49;18.10;;;14.23;;
4182;SDS011;2105;52.300;9.182;2022-10-31T07:04:15;18.00;;;13.80;;
4182;SDS011;2105;52.300;9.182;2022-10-31T07:06:42;20.23;;;13.87;;
4182;SDS011;2105;52.300;9.182;2022-10-31T07:09:09;23.93;;;13.97;;
4182;SDS011;2105;52.300;9.182;2022-10-31T07:11:37;19.30;;;14.10;;
4182;SDS011;2105;52.300;9.182;2022-10-31T07:14:04;20.27;;;13.27;;
4182;SDS011;2105;52.300;9.182;2022-10-31T07:16:31;15.80;;;11.40;;
4182;SDS011;2105;52.300;9.182;2022-10-31T07:18:57;22.10;;;11.90;;
4182;SDS011;2105;52.300;9.182;2022-10-31T07:21:24;12.87;;;10.73;;
4182;SDS011;2105;52.300;9.182;2022-10-31T07:23:51;17.17;;;11.83;;
4182;SDS011;2105;52.300;9.182;2022-10-31T07:26:18;11.97;;;10.70;;
4182;SDS011;2105;52.300;9.182;2022-10-31T07:28:46;26.27;;;10.70;;
4182;SDS011;2105;52.300;9.182;2022-10-31T07:31:13;11.60;;;9.73;;
4182;SDS011;2105;52.300;9.182;2022-10-31T07:33:40;14.47;;;11.03;;
4182;SDS011;2105;52.300;9.182;2022-10-31T07:36:06;11.60;;;10.13;;
4182;SDS011;2105;52.300;9.182;2022-10-31T07:38:33;10.60;;;9.70;;
4182;SDS011;2105;52.300;9.182;2022-10-31T07:41:00;11.10;;;9.90;;
4182;SDS011;2105;52.300;9.182;2022-10-31T07:43:27;11.37;;;9.90;;
4182;SDS011;2105;52.300;9.182;2022-10-31T07:45:55;11.17;;;9.77;;
4182;SDS011;2105;52.300;9.182;2022-10-31T07:48:22;11.57;;;10.40;;
4182;SDS011;2105;52.300;9.182;2022-10-31T07:50:48;11.27;;;10.27;;
4182;SDS011;2105;52.300;9.182;2022-10-31T07:53:15;11.27;;;10.30;;
4182;SDS011;2105;52.300;9.182;2022-10-31T07:55:42;12.13;;;10.80;;
4182;SDS011;2105;52.300;9.182;2022-10-31T07:58:12;14.57;;;11.63;;
4182;SDS011;2105;52.300;9.182;2022-10-31T08:00:41;13.90;;;10.30;;
4182;SDS011;2105;52.300;9.182;2022-10-31T08:03:11;12.20;;;11.20;;
4182;SDS011;2105;52.300;9.182;2022-10-31T08:05:39;13.33;;;10.53;;
4182;SDS011;2105;52.300;9.182;2022-10-31T08:08:07;12.40;;;11.33;;
4182;SDS011;2105;52.300;9.182;2022-10-31T08:10:35;12.10;;;11.10;;
4182;SDS011;2105;52.300;9.182;2022-10-31T08:13:02;12.27;;;11.27;;
4182;SDS011;2105;52.300;9.182;2022-10-31T08:15:31;18.30;;;13.63;;
4182;SDS011;2105;52.300;9.182;2022-10-31T08:17:59;16.33;;;13.47;;
4182;SDS011;2105;52.300;9.182;2022-10-31T08:20:28;15.40;;;13.80;;
4182;SDS011;2105;52.300;9.182;2022-10-31T08:22:55;19.67;;;16.63;;
4182;SDS011;2105;52.300;9.182;2022-10-31T08:25:23;32.13;;;17.97;;
4182;SDS011;2105;52.300;9.182;2022-10-31T08:27:50;30.43;;;18.57;;
4182;SDS011;2105;52.300;9.182;2022-10-31T08:30:18;21.90;;;19.57;;
4182;SDS011;2105;52.300;9.182;2022-10-31T08:32:45;20.90;;;18.70;;
4182;SDS011;2105;52.300;9.182;2022-10-31T08:35:12;26.23;;;20.20;;
4182;SDS011;2105;52.300;9.182;2022-10-31T08:37:41;25.30;;;21.70;;
4182;SDS011;2105;52.300;9.182;2022-10-31T08:40:08;30.07;;;22.67;;
4182;SDS011;2105;52.300;9.182;2022-10-31T08:42:36;29.57;;;23.53;;
4182;SDS011;2105;52.300;9.182;2022-10-31T08:45:03;27.90;;;22.17;;
4182;SDS011;2105;52.300;9.182;2022-10-31T08:47:30;28.43;;;21.50;;
4182;SDS011;2105;52.300;9.182;2022-10-31T08:49:57;25.73;;;20.10;;
4182;SDS011;2105;52.300;9.182;2022-10-31T08:52:24;24.80;;;20.60;;
4182;SDS011;2105;52.300;9.182;2022-10-31T08:54:52;25.63;;;21.17;;
4182;SDS011;2105;52.300;9.182;2022-10-31T08:57:19;27.17;;;22.10;;
4182;SDS011;2105;52.300;9.182;2022-10-31T08:59:46;27.90;;;21.80;;
4182;SDS011;2105;52.300;9.182;2022-10-31T09:02:13;29.47;;;20.63;;
4182;SDS011;2105;52.300;9.182;2022-10-31T09:04:39;24.77;;;21.60;;
4182;SDS011;2105;52.300;9.182;2022-10-31T09:07:06;27.93;;;21.13;;
4182;SDS011;2105;52.300;9.182;2022-10-31T09:09:33;26.53;;;20.60;;
4182;SDS011;2105;52.300;9.182;2022-10-31T09:12:01;26.77;;;21.10;;
4182;SDS011;2105;52.300;9.182;2022-10-31T09:14:28;28.70;;;21.03;;
4182;SDS011;2105;52.300;9.182;2022-10-31T09:16:55;24.20;;;21.00;;
4182;SDS011;2105;52.300;9.182;2022-10-31T09:19:22;32.20;;;21.40;;
4182;SDS011;2105;52.300;9.182;2022-10-31T09:21:51;26.00;;;21.23;;
4182;SDS011;2105;52.300;9.182;2022-10-31T09:24:18;26.40;;;21.37;;
4182;SDS011;2105;52.300;9.182;2022-10-31T09:26:45;30.70;;;22.20;;
4182;SDS011;2105;52.300;9.182;2022-10-31T09:29:13;29.27;;;21.87;;
4182;SDS011;2105;52.300;9.182;2022-10-31T09:31:40;28.00;;;21.90;;
4182;SDS011;2105;52.300;9.182;2022-10-31T09:34:06;28.00;;;22.30;;
4182;SDS011;2105;52.300;9.182;2022-10-31T09:36:33;27.03;;;22.73;;
4182;SDS011;2105;52.300;9.182;2022-10-31T09:39:00;27.80;;;21.93;;
4182;SDS011;2105;52.300;9.182;2022-10-31T09:41:28;29.50;;;23.80;;
4182;SDS011;2105;52.300;9.182;2022-10-31T09:44:06;29.67;;;22.83;;
4182;SDS011;2105;52.300;9.182;2022-10-31T09:46:44;33.30;;;23.63;;
4182;SDS011;2105;52.300;9.182;2022-10-31T09:49:24;30.67;;;23.83;;
4182;SDS011;2105;52.300;9.182;2022-10-31T09:52:11;32.87;;;24.20;;
4182;SDS011;2105;52.300;9.182;2022-10-31T09:54:44;28.40;;;23.97;;
4182;SDS011;2105;52.300;9.182;2022-10-31T09:57:15;25.77;;;23.00;;
4182;SDS011;2105;52.300;9.182;2022-10-31T09:59:46;35.20;;;23.87;;
4182;SDS011;2105;52.300;9.182;2022-10-31T10:02:17;29.73;;;23.53;;
4182;SDS011;2105;52.300;9.182;2022-10-31T10:04:48;30.53;;;23.90;;
4182;SDS011;2105;52.300;9.182;2022-10-31T10:10:12;30.33;;;23.57;;
4182;SDS011;2105;52.300;9.182;2022-10-31T10:12:45;33.07;;;24.90;;
4182;SDS011;2105;52.300;9.182;2022-10-31T10:15:36;26.07;;;23.20;;
4182;SDS011;2105;52.300;9.182;2022-10-31T10:18:18;27.40;;;22.63;;
4182;SDS011;2105;52.300;9.182;2022-10-31T10:20:57;29.13;;;23.37;;
4182;SDS011;2105;52.300;9.182;2022-10-31T10:23:35;24.70;;;22.27;;
4182;SDS011;2105;52.300;9.182;2022-10-31T10:26:11;25.03;;;22.33;;
4182;SDS011;2105;52.300;9.182;2022-10-31T10:28:43;28.40;;;23.90;;
4182;SDS011;2105;52.300;9.182;2022-10-31T10:31:13;29.10;;;23.17;;
4182;SDS011;2105;52.300;9.182;2022-10-31T10:33:44;30.87;;;23.40;;
4182;SDS011;2105;52.300;9.182;2022-10-31T10:36:18;26.57;;;23.73;;
4182;SDS011;2105;52.300;9.182;2022-10-31T10:38:49;27.73;;;22.70;;
4182;SDS011;2105;52.300;9.182;2022-10-31T10:41:20;26.80;;;23.10;;
4182;SDS011;2105;52.300;9.182;2022-10-31T10:43:48;26.40;;;22.40;;
4182;SDS011;2105;52.300;9.182;2022-10-31T10:46:17;28.10;;;23.00;;
4182;SDS011;2105;52.300;9.182;2022-10-31T10:49:07;23.77;;;21.00;;
4182;SDS011;2105;52.300;9.182;2022-10-31T10:51:43;32.87;;;23.07;;
4182;SDS011;2105;52.300;9.182;2022-10-31T10:57:18;30.93;;;22.83;;
4182;SDS011;2105;52.300;9.182;2022-10-31T10:59:49;29.33;;;23.50;;
4182;SDS011;2105;52.300;9.182;2022-10-31T11:02:17;24.80;;;22.20;;
4182;SDS011;2105;52.300;9.182;2022-10-31T11:04:47;39.90;;;22.40;;
4182;SDS011;2105;52.300;9.182;2022-10-31T11:07:16;26.80;;;21.43;;
4182;SDS011;2105;52.300;9.182;2022-10-31T11:09:43;25.73;;;22.53;;
4182;SDS011;2105;52.300;9.182;2022-10-31T11:12:15;25.67;;;22.67;;
4182;SDS011;2105;52.300;9.182;2022-10-31T11:14:48;25.60;;;21.10;;
4182;SDS011;2105;52.300;9.182;2022-10-31T11:17:20;26.77;;;21.13;;
4182;SDS011;2105;52.300;9.182;2022-10-31T11:20:16;26.10;;;21.90;;
4182;SDS011;2105;52.300;9.182;2022-10-31T11:23:00;23.90;;;20.70;;
4182;SDS011;2105;52.300;9.182;2022-10-31T11:25:29;24.23;;;21.50;;
4182;SDS011;2105;52.300;9.182;2022-10-31T11:27:59;25.00;;;21.10;;
4182;SDS011;2105;52.300;9.182;2022-10-31T11:30:27;25.73;;;20.30;;
4182;SDS011;2105;52.300;9.182;2022-10-31T11:32:54;25.30;;;20.17;;
4182;SDS011;2105;52.300;9.182;2022-10-31T11:35:24;23.60;;;19.60;;
4182;SDS011;2105;52.300;9.182;2022-10-31T11:37:52;23.33;;;19.70;;
4182;SDS011;2105;52.300;9.182;2022-10-31T11:40:27;21.97;;;19.67;;
4182;SDS011;2105;52.300;9.182;2022-10-31T11:42:54;23.30;;;19.33;;
4182;SDS011;2105;52.300;9.182;2022-10-31T11:45:32;32.00;;;19.93;;
4182;SDS011;2105;52.300;9.182;2022-10-31T11:48:02;20.90;;;18.60;;
4182;SDS011;2105;52.300;9.182;2022-10-31T11:50:42;20.53;;;18.27;;
4182;SDS011;2105;52.300;9.182;2022-10-31T11:53:16;21.30;;;19.20;;
4182;SDS011;2105;52.300;9.182;2022-10-31T11:55:45;25.87;;;21.87;;
4182;SDS011;2105;52.300;9.182;2022-10-31T11:58:22;25.30;;;21.53;;
4182;SDS011;2105;52.300;9.182;2022-10-31T12:00:51;33.73;;;23.50;;
4182;SDS011;2105;52.300;9.182;2022-10-31T12:03:34;29.43;;;22.93;;
4182;SDS011;2105;52.300;9.182;2022-10-31T12:06:10;23.90;;;21.43;;
4182;SDS011;2105;52.300;9.182;2022-10-31T12:08:42;29.63;;;21.63;;
4182;SDS011;2105;52.300;9.182;2022-10-31T12:11:13;34.33;;;23.77;;
4182;SDS011;2105;52.300;9.182;2022-10-31T12:13:51;28.43;;;23.07;;
4182;SDS011;2105;52.300;9.182;2022-10-31T12:16:28;35.63;;;24.37;;
4182;SDS011;2105;52.300;9.182;2022-10-31T12:19:00;41.33;;;32.30;;
4182;SDS011;2105;52.300;9.182;2022-10-31T12:24:32;33.80;;;23.90;;
4182;SDS011;2105;52.300;9.182;2022-10-31T12:27:15;27.00;;;24.20;;
4182;SDS011;2105;52.300;9.182;2022-10-31T12:29:55;26.17;;;23.40;;
4182;SDS011;2105;52.300;9.182;2022-10-31T12:32:31;27.43;;;24.03;;
4182;SDS011;2105;52.300;9.182;2022-10-31T12:38:15;34.83;;;22.73;;
4182;SDS011;2105;52.300;9.182;2022-10-31T12:40:55;30.13;;;23.17;;
4182;SDS011;2105;52.300;9.182;2022-10-31T12:43:35;24.83;;;21.40;;
4182;SDS011;2105;52.300;9.182;2022-10-31T12:46:10;27.73;;;22.03;;
4182;SDS011;2105;52.300;9.182;2022-10-31T12:48:58;24.73;;;20.10;;
4182;SDS011;2105;52.300;9.182;2022-10-31T12:51:37;24.90;;;20.83;;
4182;SDS011;2105;52.300;9.182;2022-10-31T12:54:20;40.43;;;22.27;;
4182;SDS011;2105;52.300;9.182;2022-10-31T12:57:01;30.43;;;21.97;;
4182;SDS011;2105;52.300;9.182;2022-10-31T12:59:34;26.03;;;23.10;;
4182;SDS011;2105;52.300;9.182;2022-10-31T13:02:09;27.00;;;22.77;;
4182;SDS011;2105;52.300;9.182;2022-10-31T13:04:43;28.70;;;23.20;;
4182;SDS011;2105;52.300;9.182;2022-10-31T13:07:16;26.20;;;22.17;;
4182;SDS011;2105;52.300;9.182;2022-10-31T13:09:54;34.20;;;23.60;;
4182;SDS011;2105;52.300;9.182;2022-10-31T13:12:24;37.03;;;22.70;;
4182;SDS011;2105;52.300;9.182;2022-10-31T13:14:54;29.03;;;22.70;;
4182;SDS011;2105;52.300;9.182;2022-10-31T13:17:26;27.17;;;22.10;;
4182;SDS011;2105;52.300;9.182;2022-10-31T13:19:58;31.73;;;21.93;;
4182;SDS011;2105;52.300;9.182;2022-10-31T13:22:39;31.27;;;22.77;;
4182;SDS011;2105;52.300;9.182;2022-10-31T13:25:13;24.33;;;21.40;;
4182;SDS011;2105;52.300;9.182;2022-10-31T13:27:45;30.00;;;21.93;;
4182;SDS011;2105;52.300;9.182;2022-10-31T13:30:16;23.53;;;21.10;;
4182;SDS011;2105;52.300;9.182;2022-10-31T13:32:46;24.03;;;21.23;;
4182;SDS011;2105;52.300;9.182;2022-10-31T13:35:18;27.87;;;22.00;;
4182;SDS011;2105;52.300;9.182;2022-10-31T13:37:52;26.97;;;22.90;;
4182;SDS011;2105;52.300;9.182;2022-10-31T13:40:33;38.13;;;22.43;;
4182;SDS011;2105;52.300;9.182;2022-10-31T13:43:09;29.93;;;22.53;;
4182;SDS011;2105;52.300;9.182;2022-10-31T13:45:47;26.70;;;22.43;;
4182;SDS011;2105;52.300;9.182;2022-10-31T13:48:29;29.97;;;21.83;;
4182;SDS011;2105;52.300;9.182;2022-10-31T13:51:01;26.93;;;21.20;;
4182;SDS011;2105;52.300;9.182;2022-10-31T13:53:36;29.40;;;20.93;;
4182;SDS011;2105;52.300;9.182;2022-10-31T13:56:11;23.83;;;21.07;;
4182;SDS011;2105;52.300;9.182;2022-10-31T13:58:57;28.40;;;21.80;;
4182;SDS011;2105;52.300;9.182;2022-10-31T14:01:27;28.87;;;22.00;;
4182;SDS011;2105;52.300;9.182;2022-10-31T14:04:02;28.97;;;21.10;;
4182;SDS011;2105;52.300;9.182;2022-10-31T14:06:35;29.07;;;22.30;;
4182;SDS011;2105;52.300;9.182;2022-10-31T14:09:22;28.83;;;22.40;;
4182;SDS011;2105;52.300;9.182;2022-10-31T14:11:53;28.33;;;22.10;;
4182;SDS011;2105;52.300;9.182;2022-10-31T14:14:22;26.37;;;21.47;;
4182;SDS011;2105;52.300;9.182;2022-10-31T14:16:56;27.60;;;21.90;;
4182;SDS011;2105;52.300;9.182;2022-10-31T14:19:24;27.27;;;21.20;;
4182;SDS011;2105;52.300;9.182;2022-10-31T14:21:51;36.30;;;22.20;;
4182;SDS011;2105;52.300;9.182;2022-10-31T14:24:32;27.43;;;21.67;;
4182;SDS011;2105;52.300;9.182;2022-10-31T14:27:03;26.07;;;21.10;;
4182;SDS011;2105;52.300;9.182;2022-10-31T14:29:45;34.90;;;20.77;;
4182;SDS011;2105;52.300;9.182;2022-10-31T14:32:16;24.53;;;21.03;;
4182;SDS011;2105;52.300;9.182;2022-10-31T14:34:51;23.20;;;20.17;;
4182;SDS011;2105;52.300;9.182;2022-10-31T14:37:24;26.03;;;20.80;;
4182;SDS011;2105;52.300;9.182;2022-10-31T14:43:11;25.80;;;21.20;;
4182;SDS011;2105;52.300;9.182;2022-10-31T14:45:57;28.87;;;21.00;;
4182;SDS011;2105;52.300;9.182;2022-10-31T14:48:33;22.97;;;20.10;;
4182;SDS011;2105;52.300;9.182;2022-10-31T14:51:09;33.80;;;21.47;;
4182;SDS011;2105;52.300;9.182;2022-10-31T14:53:41;29.73;;;20.57;;
4182;SDS011;2105;52.300;9.182;2022-10-31T14:56:11;28.23;;;21.47;;
4182;SDS011;2105;52.300;9.182;2022-10-31T14:58:44;22.00;;;19.70;;
4182;SDS011;2105;52.300;9.182;2022-10-31T15:01:15;25.03;;;19.93;;
4182;SDS011;2105;52.300;9.182;2022-10-31T15:03:47;25.30;;;19.90;;
4182;SDS011;2105;52.300;9.182;2022-10-31T15:06:15;25.47;;;20.30;;
4182;SDS011;2105;52.300;9.182;2022-10-31T15:08:45;24.20;;;20.53;;
4182;SDS011;2105;52.300;9.182;2022-10-31T15:11:15;22.17;;;18.97;;
4182;SDS011;2105;52.300;9.182;2022-10-31T15:13:48;22.47;;;19.47;;
4182;SDS011;2105;52.300;9.182;2022-10-31T15:16:17;22.33;;;18.80;;
4182;SDS011;2105;52.300;9.182;2022-10-31T15:18:52;28.77;;;18.80;;
4182;SDS011;2105;52.300;9.182;2022-10-31T15:21:21;25.17;;;19.60;;
4182;SDS011;2105;52.300;9.182;2022-10-31T15:23:50;23.87;;;18.60;;